Holmes Beach, Florida
Current Conditions -  °F | °C
As of 3:53 PM on Monday 24 Nov 2014 (Local Time) from KSRQ Reporting Station
Clear Clear  
Wind Chill: 78°   Ceiling: Unl
Heat Index: 81°   Visibility: 10mi
Dew Point: 73°   Wind: 10mph
Humidity: 84%   Direction: 190°S
Pressure: 29.93"   Gusts: NA
Location:  27.5°N, 82.71°W
Report Text: KSRQ 242053Z 19009KT 10SM CLR 26/23 A2993 RMK AO2 SLP135 T02560228 55001
Loading
Personal Weather Stations






























Interactive Weather Map New forecast layout! Learn more

10-Day Weather Forecast

Advertisements
Track Severe Weather on mobile